Time;durP1;ratioP1;P1;durP2;ratioP2;P2;SDS_P1;SDS_P2;PMS_P1;PMS_P2;Temp;Humidity;BMP_temperature;BMP_pressure;BME280_temperature;BME280_humidity;BME280_pressure;Samples;Min_cycle;Max_cycle;Signal;HPM_P1;HPM_P2
2021/11/02 00:00:36;;;;;;;21.33;20.03;;;;;;;;;;5094500;28;20408;-85
2021/11/02 00:03:04;;;;;;;21.13;19.70;;;;;;;;;;5094831;28;20444;-86
2021/11/02 00:05:32;;;;;;;21.03;19.43;;;;;;;;;;5095115;28;20438;-85
2021/11/02 00:07:59;;;;;;;20.53;19.13;;;;;;;;;;5095064;28;20425;-86
2021/11/02 00:10:28;;;;;;;20.93;19.63;;;;;;;;;;5095022;28;20802;-86
2021/11/02 00:12:56;;;;;;;21.10;19.50;;;;;;;;;;5094944;28;20517;-85
2021/11/02 00:15:31;;;;;;;21.87;20.17;;;;;;;;;;5094673;27;20464;-85
2021/11/02 00:18:01;;;;;;;21.80;20.20;;;;;;;;;;5096497;27;20474;-85
2021/11/02 00:20:28;;;;;;;20.60;19.40;;;;;;;;;;5094515;28;20419;-86
2021/11/02 00:22:57;;;;;;;21.27;19.90;;;;;;;;;;5094657;28;20459;-86
2021/11/02 00:25:25;;;;;;;21.17;19.88;;;;;;;;;;5094631;28;20471;-85
2021/11/02 00:27:54;;;;;;;21.00;19.70;;;;;;;;;;5094541;28;20186;-85
2021/11/02 00:30:22;;;;;;;21.23;19.70;;;;;;;;;;5094770;28;20719;-86
2021/11/02 00:32:52;;;;;;;21.30;19.83;;;;;;;;;;5094429;28;20433;-86
2021/11/02 00:35:20;;;;;;;20.67;19.47;;;;;;;;;;5094393;28;20204;-86
2021/11/02 00:37:48;;;;;;;21.33;20.03;;;;;;;;;;5094334;28;20493;-86
2021/11/02 00:40:16;;;;;;;21.37;19.97;;;;;;;;;;5094514;28;20480;-85
2021/11/02 00:42:51;;;;;;;21.97;20.60;;;;;;;;;;5094256;28;20482;-85
2021/11/02 00:45:27;;;;;;;21.83;20.53;;;;;;;;;;5094425;28;20447;-85
2021/11/02 00:47:56;;;;;;;22.20;20.52;;;;;;;;;;5094521;28;20420;-86
2021/11/02 00:50:23;;;;;;;20.83;19.42;;;;;;;;;;5094431;28;20205;-85
2021/11/02 00:52:51;;;;;;;21.90;20.50;;;;;;;;;;5094404;28;20213;-85
2021/11/02 00:55:18;;;;;;;21.10;19.57;;;;;;;;;;5094153;28;20415;-85
2021/11/02 00:57:45;;;;;;;22.23;20.50;;;;;;;;;;5093907;28;20470;-86
2021/11/02 01:00:14;;;;;;;20.85;19.52;;;;;;;;;;5094153;28;20440;-86
2021/11/02 01:02:42;;;;;;;21.03;19.43;;;;;;;;;;5094245;28;20202;-85
2021/11/02 01:05:11;;;;;;;22.35;20.73;;;;;;;;;;5094210;28;20422;-86
2021/11/02 01:07:39;;;;;;;20.92;19.70;;;;;;;;;;5093979;28;20217;-85
2021/11/02 01:10:12;;;;;;;21.73;20.03;;;;;;;;;;5093935;27;20675;-85
2021/11/02 01:12:40;;;;;;;23.03;21.03;;;;;;;;;;5094197;28;20852;-85
2021/11/02 01:15:07;;;;;;;22.33;20.50;;;;;;;;;;5093812;28;20976;-86
2021/11/02 01:17:35;;;;;;;21.03;19.60;;;;;;;;;;5093915;28;20485;-85
2021/11/02 01:20:03;;;;;;;21.93;20.50;;;;;;;;;;5093761;28;20921;-86
2021/11/02 01:22:32;;;;;;;20.90;19.67;;;;;;;;;;5094092;28;20415;-85
2021/11/02 01:24:59;;;;;;;21.60;20.20;;;;;;;;;;5093897;28;20435;-86
2021/11/02 01:27:26;;;;;;;23.47;21.97;;;;;;;;;;5093889;28;20423;-85
2021/11/02 01:29:54;;;;;;;21.50;19.93;;;;;;;;;;5093998;28;20463;-86
2021/11/02 01:32:22;;;;;;;20.87;19.57;;;;;;;;;;5093860;28;20464;-86
2021/11/02 01:34:49;;;;;;;20.90;19.60;;;;;;;;;;5093818;28;20434;-85
2021/11/02 01:37:17;;;;;;;22.00;20.43;;;;;;;;;;5094049;28;20217;-85
2021/11/02 01:39:46;;;;;;;21.30;20.10;;;;;;;;;;5093678;28;20450;-86
2021/11/02 01:42:13;;;;;;;21.67;19.87;;;;;;;;;;5093717;28;20507;-86
2021/11/02 01:44:40;;;;;;;21.30;19.80;;;;;;;;;;5093780;28;20436;-85
2021/11/02 01:47:08;;;;;;;21.23;19.77;;;;;;;;;;5092567;28;20469;-85
2021/11/02 01:49:38;;;;;;;22.30;20.77;;;;;;;;;;5093361;28;20441;-84
2021/11/02 01:52:06;;;;;;;22.40;20.87;;;;;;;;;;5093740;28;20471;-85
2021/11/02 01:54:34;;;;;;;22.43;20.70;;;;;;;;;;5093730;28;20431;-85
2021/11/02 01:57:03;;;;;;;22.02;20.60;;;;;;;;;;5093486;28;20571;-86
2021/11/02 01:59:31;;;;;;;20.87;19.57;;;;;;;;;;5092457;28;20209;-85
2021/11/02 02:02:02;;;;;;;20.90;19.70;;;;;;;;;;5093572;28;20515;-85
2021/11/02 02:04:35;;;;;;;21.70;20.00;;;;;;;;;;5093715;28;20422;-85
2021/11/02 02:07:09;;;;;;;21.17;19.77;;;;;;;;;;5092499;28;20435;-86
2021/11/02 02:09:40;;;;;;;21.70;20.30;;;;;;;;;;5093605;28;20430;-85
2021/11/02 02:12:12;;;;;;;22.38;20.70;;;;;;;;;;5093315;28;20427;-85
2021/11/02 02:14:41;;;;;;;21.23;19.83;;;;;;;;;;5093388;28;20291;-86
2021/11/02 02:17:11;;;;;;;21.42;19.77;;;;;;;;;;5093361;28;20510;-85
2021/11/02 02:19:45;;;;;;;20.80;19.30;;;;;;;;;;5093565;28;20213;-85
2021/11/02 02:22:22;;;;;;;21.55;20.15;;;;;;;;;;5093815;28;20212;-86
2021/11/02 02:25:02;;;;;;;22.50;20.90;;;;;;;;;;5096922;28;20553;-86
2021/11/02 02:27:35;;;;;;;20.30;19.20;;;;;;;;;;5096963;28;20519;-86
2021/11/02 02:30:07;;;;;;;21.92;20.08;;;;;;;;;;5097021;28;20206;-85
2021/11/02 02:32:34;;;;;;;23.90;22.20;;;;;;;;;;5096909;28;20206;-85
2021/11/02 02:35:08;;;;;;;21.92;20.23;;;;;;;;;;5096784;28;20439;-86
2021/11/02 02:37:39;;;;;;;21.73;20.00;;;;;;;;;;5096605;28;20244;-85
2021/11/02 02:40:08;;;;;;;21.50;20.20;;;;;;;;;;5096953;28;20438;-85
2021/11/02 02:42:37;;;;;;;21.67;20.10;;;;;;;;;;5095207;28;20229;-85
2021/11/02 02:45:08;;;;;;;21.43;19.77;;;;;;;;;;5095581;28;20549;-86
2021/11/02 02:47:36;;;;;;;21.10;19.55;;;;;;;;;;5096631;28;20534;-85
2021/11/02 02:50:04;;;;;;;22.15;20.75;;;;;;;;;;5096651;28;20202;-85
2021/11/02 02:52:33;;;;;;;21.60;19.97;;;;;;;;;;5096505;28;20263;-85
2021/11/02 02:55:01;;;;;;;22.20;20.80;;;;;;;;;;5096422;28;20435;-85
2021/11/02 02:57:30;;;;;;;21.83;20.50;;;;;;;;;;5096039;28;20960;-85
2021/11/02 02:59:58;;;;;;;20.70;19.37;;;;;;;;;;5096270;28;20209;-85
2021/11/02 03:02:29;;;;;;;20.73;19.35;;;;;;;;;;5096308;28;20436;-85
2021/11/02 03:04:57;;;;;;;21.35;19.75;;;;;;;;;;5096270;28;20217;-84
2021/11/02 03:07:24;;;;;;;20.52;19.13;;;;;;;;;;5096520;28;20198;-85
2021/11/02 03:09:52;;;;;;;21.37;19.87;;;;;;;;;;5096121;28;20195;-85
2021/11/02 03:12:21;;;;;;;21.57;20.03;;;;;;;;;;5096128;28;20444;-85
2021/11/02 03:15:00;;;;;;;22.57;20.47;;;;;;;;;;5096138;28;20483;-85
2021/11/02 03:17:31;;;;;;;20.70;19.40;;;;;;;;;;5095997;28;20503;-84
2021/11/02 03:47:57;;;;;;;21.20;19.90;;;;;;;;;;5033344;28;20481;-85
2021/11/02 03:48:18;;;;;;;21.42;19.73;;;;;;;;;;5033281;28;20403;-85
2021/11/02 03:51:03;;;;;;;21.23;19.83;;;;;;;;;;5033496;28;20229;-85
2021/11/02 03:56:26;;;;;;;21.90;20.23;;;;;;;;;;5033065;28;20203;-84
2021/11/02 03:59:11;;;;;;;21.67;20.03;;;;;;;;;;5032667;28;20493;-85
2021/11/02 04:01:55;;;;;;;22.20;20.60;;;;;;;;;;5033002;28;20446;-86
2021/11/02 04:24:07;;;;;;;22.60;21.10;;;;;;;;;;5094630;28;20426;-86
2021/11/02 05:48:00;;;;;;;22.15;20.40;;;;;;;;;;5051492;28;20442;-84
2021/11/02 05:53:33;;;;;;;22.17;20.67;;;;;;;;;;5051501;28;20395;-86
2021/11/02 05:56:04;;;;;;;21.33;19.93;;;;;;;;;;5051456;28;20204;-85
2021/11/02 05:58:35;;;;;;;22.30;20.80;;;;;;;;;;5053547;28;20559;-85
2021/11/02 06:01:06;;;;;;;22.70;20.77;;;;;;;;;;5055682;28;20458;-86
2021/11/02 06:03:44;;;;;;;22.33;20.87;;;;;;;;;;5097526;28;20950;-86
2021/11/02 06:06:22;;;;;;;21.70;20.47;;;;;;;;;;5097656;28;20454;-86
2021/11/02 06:09:02;;;;;;;22.47;20.33;;;;;;;;;;5097320;28;20410;-86
2021/11/02 06:28:21;;;;;;;22.42;20.60;;;;;;;;;;5096917;28;20888;-86
2021/11/02 06:30:52;;;;;;;22.30;20.90;;;;;;;;;;5097099;28;20206;-87
2021/11/02 06:33:35;;;;;;;23.20;21.58;;;;;;;;;;5095580;28;20783;-86
2021/11/02 06:36:13;;;;;;;21.77;20.23;;;;;;;;;;5096102;28;20197;-89
2021/11/02 06:53:02;;;;;;;23.57;21.50;;;;;;;;;;5096859;28;20233;-92
2021/11/02 06:55:50;;;;;;;23.47;21.80;;;;;;;;;;5096883;27;20467;-92
2021/11/02 07:18:03;;;;;;;24.33;22.63;;;;;;;;;;5093764;28;20221;-90
2021/11/02 07:20:43;;;;;;;24.45;22.73;;;;;;;;;;5095200;28;20940;-90
2021/11/02 07:23:21;;;;;;;26.30;23.65;;;;;;;;;;5095096;28;20290;-91
2021/11/02 07:26:00;;;;;;;25.58;23.58;;;;;;;;;;5096964;28;20361;-92
2021/11/02 08:46:37;;;;;;;23.70;22.10;;;;;;;;;;5094617;28;20465;-89
2021/11/02 08:49:06;;;;;;;24.53;22.73;;;;;;;;;;5094118;28;20929;-89
2021/11/02 08:51:36;;;;;;;23.47;21.87;;;;;;;;;;5094460;28;20447;-88
2021/11/02 08:54:03;;;;;;;23.60;22.10;;;;;;;;;;5094966;28;20517;-89
2021/11/02 08:56:31;;;;;;;22.90;21.10;;;;;;;;;;5095146;28;20413;-89
2021/11/02 08:58:58;;;;;;;24.03;22.30;;;;;;;;;;5095562;28;20466;-90
2021/11/02 09:01:26;;;;;;;23.57;21.80;;;;;;;;;;5101900;28;20400;-93
2021/11/02 09:03:59;;;;;;;23.03;21.63;;;;;;;;;;5095223;28;20440;-90
2021/11/02 09:06:28;;;;;;;23.63;22.13;;;;;;;;;;5100395;28;20465;-84
2021/11/02 09:08:57;;;;;;;24.20;22.60;;;;;;;;;;5098493;28;20459;-96
2021/11/02 09:11:25;;;;;;;23.80;22.20;;;;;;;;;;5094638;28;20521;-89
2021/11/02 09:13:54;;;;;;;31.87;24.10;;;;;;;;;;5094431;28;20436;-89
2021/11/02 09:16:22;;;;;;;24.23;22.43;;;;;;;;;;5094070;28;20947;-89
2021/11/02 09:18:50;;;;;;;25.07;23.27;;;;;;;;;;5094506;28;20473;-89
2021/11/02 09:21:17;;;;;;;24.47;22.87;;;;;;;;;;5093096;28;20483;-90
2021/11/02 09:23:47;;;;;;;23.37;21.97;;;;;;;;;;5094173;28;20487;-89
2021/11/02 09:26:17;;;;;;;24.10;22.40;;;;;;;;;;5094165;28;20407;-89
2021/11/02 09:28:45;;;;;;;24.47;22.67;;;;;;;;;;5093862;28;20423;-89
2021/11/02 09:31:14;;;;;;;24.33;22.63;;;;;;;;;;5094273;28;20411;-89
2021/11/02 09:33:41;;;;;;;25.20;23.50;;;;;;;;;;5098206;28;20430;-89
2021/11/02 09:36:10;;;;;;;24.47;22.97;;;;;;;;;;5098140;28;20410;-89
2021/11/02 09:38:47;;;;;;;24.10;22.47;;;;;;;;;;5098107;28;20515;-89
2021/11/02 09:41:36;;;;;;;24.23;22.77;;;;;;;;;;5098278;28;20446;-89
2021/11/02 09:44:23;;;;;;;24.47;22.80;;;;;;;;;;5098361;28;20465;-89
2021/11/02 09:47:07;;;;;;;24.60;22.87;;;;;;;;;;5098299;28;20514;-88
2021/11/02 09:49:58;;;;;;;24.40;22.77;;;;;;;;;;5098148;28;20485;-89
2021/11/02 09:52:41;;;;;;;23.67;22.07;;;;;;;;;;5083058;28;20434;-89
2021/11/02 09:55:36;;;;;;;23.43;21.83;;;;;;;;;;5098031;28;20942;-89
2021/11/02 09:58:13;;;;;;;23.87;22.17;;;;;;;;;;5097836;28;20419;-89
2021/11/02 10:01:01;;;;;;;25.00;23.30;;;;;;;;;;5098030;28;20542;-89
2021/11/02 10:03:44;;;;;;;25.80;24.10;;;;;;;;;;5097869;28;20489;-89
2021/11/02 10:06:29;;;;;;;25.00;23.23;;;;;;;;;;5097937;28;20485;-89
2021/11/02 10:09:03;;;;;;;25.33;23.53;;;;;;;;;;5097718;28;20486;-89
2021/11/02 10:11:38;;;;;;;25.23;23.43;;;;;;;;;;5097909;28;20767;-89
2021/11/02 10:14:21;;;;;;;25.33;23.63;;;;;;;;;;5097495;28;20454;-87
2021/11/02 10:17:04;;;;;;;24.53;22.80;;;;;;;;;;5097277;28;20448;-89
2021/11/02 10:19:55;;;;;;;25.37;23.70;;;;;;;;;;5097362;28;20484;-89
2021/11/02 10:22:31;;;;;;;25.43;23.53;;;;;;;;;;5097559;28;20427;-84
2021/11/02 10:25:06;;;;;;;25.00;23.23;;;;;;;;;;5096415;28;20427;-90
2021/11/02 10:27:50;;;;;;;22.87;21.33;;;;;;;;;;5097439;28;20402;-90
2021/11/02 10:30:34;;;;;;;22.80;21.10;;;;;;;;;;5097354;28;20448;-89
2021/11/02 10:33:08;;;;;;;23.33;21.80;;;;;;;;;;5096192;28;20954;-90
2021/11/02 10:35:45;;;;;;;24.00;22.10;;;;;;;;;;5097016;28;20415;-88
2021/11/02 10:38:13;;;;;;;24.00;22.40;;;;;;;;;;5097024;28;20442;-89
2021/11/02 10:40:50;;;;;;;24.10;22.50;;;;;;;;;;5096821;28;20479;-90
2021/11/02 10:43:32;;;;;;;23.90;22.07;;;;;;;;;;5094928;28;20434;-89
2021/11/02 10:46:04;;;;;;;24.50;23.00;;;;;;;;;;5096792;28;20414;-89
2021/11/02 10:48:34;;;;;;;23.17;21.67;;;;;;;;;;5097145;28;20412;-89
2021/11/02 10:51:05;;;;;;;23.37;21.97;;;;;;;;;;5097369;28;20437;-89
2021/11/02 10:53:36;;;;;;;23.63;22.03;;;;;;;;;;5097096;28;20415;-89
2021/11/02 10:56:07;;;;;;;23.67;21.70;;;;;;;;;;5096667;28;20415;-90
2021/11/02 10:58:36;;;;;;;24.83;22.97;;;;;;;;;;5096578;28;20857;-90
2021/11/02 11:01:06;;;;;;;23.57;21.80;;;;;;;;;;5096588;28;20422;-90
2021/11/02 11:03:34;;;;;;;25.20;23.30;;;;;;;;;;5096749;28;20464;-89
2021/11/02 11:06:02;;;;;;;24.13;22.43;;;;;;;;;;5096749;28;20484;-90
2021/11/02 11:08:31;;;;;;;24.10;22.10;;;;;;;;;;5097799;28;20453;-95
2021/11/02 11:11:00;;;;;;;24.17;22.37;;;;;;;;;;5096722;28;20418;-90
2021/11/02 11:13:28;;;;;;;24.33;22.53;;;;;;;;;;5096558;28;20815;-89
2021/11/02 11:15:59;;;;;;;24.10;22.37;;;;;;;;;;5096149;28;20480;-93
2021/11/02 11:18:34;;;;;;;24.73;22.93;;;;;;;;;;5096885;28;20433;-82
2021/11/02 11:21:02;;;;;;;23.90;22.30;;;;;;;;;;5096459;28;20451;-93
2021/11/02 11:23:30;;;;;;;23.70;21.83;;;;;;;;;;5096229;27;20457;-93
2021/11/02 11:26:00;;;;;;;24.23;22.43;;;;;;;;;;5096273;28;20437;-93
2021/11/02 11:28:27;;;;;;;24.30;22.33;;;;;;;;;;5096251;28;20433;-93
2021/11/02 11:30:56;;;;;;;25.00;23.37;;;;;;;;;;5096537;28;20448;-92
2021/11/02 11:33:23;;;;;;;23.90;22.13;;;;;;;;;;5097617;28;20433;-93
2021/11/02 11:35:53;;;;;;;23.80;21.70;;;;;;;;;;5095731;28;20466;-93
2021/11/02 11:38:22;;;;;;;23.33;21.63;;;;;;;;;;5096976;28;20436;-92
2021/11/02 11:40:50;;;;;;;23.20;21.53;;;;;;;;;;5095670;28;20496;-92
2021/11/02 11:43:17;;;;;;;22.90;21.40;;;;;;;;;;5095290;28;20455;-93
2021/11/02 11:45:46;;;;;;;23.93;22.33;;;;;;;;;;5095927;28;20433;-93
2021/11/02 11:48:14;;;;;;;24.83;23.23;;;;;;;;;;5095953;28;20430;-93
2021/11/02 11:50:43;;;;;;;24.30;22.60;;;;;;;;;;5096055;28;20445;-93
2021/11/02 11:53:16;;;;;;;24.47;22.77;;;;;;;;;;5096073;28;20430;-93
2021/11/02 11:55:45;;;;;;;24.43;22.30;;;;;;;;;;5093510;28;20445;-93
2021/11/02 11:58:14;;;;;;;24.73;22.70;;;;;;;;;;5095652;28;20407;-93
2021/11/02 12:00:42;;;;;;;24.43;22.83;;;;;;;;;;5095307;28;20994;-92
2021/11/02 12:03:17;;;;;;;24.83;23.20;;;;;;;;;;5095554;28;20415;-93
2021/11/02 12:05:46;;;;;;;24.40;22.80;;;;;;;;;;5094367;28;20930;-93
2021/11/02 12:08:18;;;;;;;25.60;23.90;;;;;;;;;;5095367;28;20433;-92
2021/11/02 12:10:46;;;;;;;25.93;24.10;;;;;;;;;;5095329;28;20474;-92
2021/11/02 12:13:15;;;;;;;25.40;23.20;;;;;;;;;;5094130;28;20420;-93
2021/11/02 12:15:58;;;;;;;24.83;23.10;;;;;;;;;;5095378;28;20476;-92
2021/11/02 12:18:28;;;;;;;24.00;22.40;;;;;;;;;;5093928;28;20423;-93
2021/11/02 12:20:56;;;;;;;23.97;22.37;;;;;;;;;;5094945;28;20459;-93
2021/11/02 12:23:39;;;;;;;24.97;23.00;;;;;;;;;;5095197;27;20513;-92
2021/11/02 12:26:06;;;;;;;22.17;20.87;;;;;;;;;;5095529;28;20555;-93
2021/11/02 12:28:35;;;;;;;22.90;21.30;;;;;;;;;;5094199;28;20437;-94
2021/11/02 12:31:03;;;;;;;23.10;21.40;;;;;;;;;;5095575;28;20415;-94
2021/11/02 12:33:31;;;;;;;23.47;21.87;;;;;;;;;;5096466;28;20414;-95
2021/11/02 12:36:02;;;;;;;24.20;22.53;;;;;;;;;;5095962;28;20437;-93
2021/11/02 12:38:31;;;;;;;23.20;21.70;;;;;;;;;;5093868;28;20565;-93
2021/11/02 12:41:00;;;;;;;23.70;21.90;;;;;;;;;;5094757;28;21008;-93
2021/11/02 12:43:28;;;;;;;22.37;20.90;;;;;;;;;;5095216;28;20451;-93
2021/11/02 12:45:56;;;;;;;23.73;22.23;;;;;;;;;;5095053;28;20425;-92
2021/11/02 12:48:24;;;;;;;23.60;22.00;;;;;;;;;;5093683;28;20445;-93
2021/11/02 12:50:52;;;;;;;25.07;23.17;;;;;;;;;;5093786;28;20450;-93
2021/11/02 12:53:19;;;;;;;23.70;21.97;;;;;;;;;;5095751;28;20483;-86
2021/11/02 12:55:47;;;;;;;23.57;22.13;;;;;;;;;;5095200;28;20438;-85
2021/11/02 12:58:18;;;;;;;23.70;21.70;;;;;;;;;;5094331;27;20453;-83
2021/11/02 13:00:50;;;;;;;25.17;23.30;;;;;;;;;;5108816;28;20476;-95
2021/11/02 13:03:25;;;;;;;24.07;22.40;;;;;;;;;;5107326;28;20450;-93
2021/11/02 13:05:57;;;;;;;24.27;22.40;;;;;;;;;;5095092;28;20447;-91
2021/11/02 13:08:33;;;;;;;23.07;21.60;;;;;;;;;;5094889;28;20432;-92
2021/11/02 13:11:05;;;;;;;23.80;22.40;;;;;;;;;;5093718;28;20433;-92
2021/11/02 13:13:57;;;;;;;24.03;22.50;;;;;;;;;;5094790;28;20480;-90
2021/11/02 13:16:25;;;;;;;23.23;21.47;;;;;;;;;;5094385;28;20478;-91
2021/11/02 13:18:54;;;;;;;24.63;22.80;;;;;;;;;;5094820;28;20433;-90
2021/11/02 13:21:25;;;;;;;23.40;22.00;;;;;;;;;;5094316;28;21020;-90
2021/11/02 13:23:58;;;;;;;24.43;22.73;;;;;;;;;;5096245;28;20456;-90
2021/11/02 13:26:26;;;;;;;23.07;21.67;;;;;;;;;;5095946;28;20531;-90
2021/11/02 13:29:09;;;;;;;23.60;22.00;;;;;;;;;;5096376;28;20484;-93
2021/11/02 13:31:39;;;;;;;23.60;22.10;;;;;;;;;;5097713;28;20437;-90
2021/11/02 13:34:07;;;;;;;23.60;21.83;;;;;;;;;;5098699;28;20455;-90
2021/11/02 13:36:35;;;;;;;22.90;21.40;;;;;;;;;;5099584;28;20453;-90
2021/11/02 13:39:03;;;;;;;23.40;21.73;;;;;;;;;;5098613;28;20449;-89
2021/11/02 13:41:31;;;;;;;22.23;20.73;;;;;;;;;;5097037;28;20933;-90
2021/11/02 13:44:03;;;;;;;23.23;21.70;;;;;;;;;;5095917;28;20436;-90
2021/11/02 13:46:32;;;;;;;23.73;21.97;;;;;;;;;;5095158;28;20477;-90
2021/11/02 13:49:04;;;;;;;22.90;21.30;;;;;;;;;;5096346;28;20883;-90
2021/11/02 13:51:31;;;;;;;22.13;20.87;;;;;;;;;;5096003;28;20421;-92
2021/11/02 13:54:00;;;;;;;22.27;20.87;;;;;;;;;;5095684;28;20444;-90
2021/11/02 13:56:28;;;;;;;23.10;21.30;;;;;;;;;;5095711;28;20438;-90
2021/11/02 13:58:56;;;;;;;22.40;21.00;;;;;;;;;;5095089;28;20846;-95
2021/11/02 14:01:27;;;;;;;23.43;21.80;;;;;;;;;;5095844;28;20484;-93
2021/11/02 14:03:58;;;;;;;22.80;21.40;;;;;;;;;;5097141;28;20521;-92
2021/11/02 14:06:27;;;;;;;22.77;21.33;;;;;;;;;;5098527;28;20506;-93
2021/11/02 14:08:56;;;;;;;22.40;21.00;;;;;;;;;;5100869;28;20460;-93
2021/11/02 14:11:25;;;;;;;23.50;21.90;;;;;;;;;;5103158;28;20437;-92
2021/11/02 14:13:54;;;;;;;22.67;21.30;;;;;;;;;;5094570;28;20452;-92
2021/11/02 14:16:45;;;;;;;24.87;22.90;;;;;;;;;;5094709;28;20455;-93
2021/11/02 14:19:43;;;;;;;22.27;20.87;;;;;;;;;;5096617;28;20454;-93
2021/11/02 14:22:12;;;;;;;20.57;19.37;;;;;;;;;;5039015;28;20464;-93
2021/11/02 14:24:40;;;;;;;21.27;19.97;;;;;;;;;;5036611;28;20463;-94
2021/11/02 14:27:11;;;;;;;21.33;19.97;;;;;;;;;;5035796;28;20426;-92
2021/11/02 14:29:50;;;;;;;21.17;19.77;;;;;;;;;;5020857;28;20841;-86
2021/11/02 14:32:32;;;;;;;22.07;20.17;;;;;;;;;;5037097;28;20451;-93
2021/11/02 14:34:59;;;;;;;22.20;20.80;;;;;;;;;;5035240;28;20456;-90
2021/11/02 14:37:29;;;;;;;22.23;20.80;;;;;;;;;;5039164;28;20459;-89
2021/11/02 14:40:03;;;;;;;21.80;20.33;;;;;;;;;;5037347;28;20487;-95
2021/11/02 14:42:49;;;;;;;21.63;20.20;;;;;;;;;;5048165;22;20510;-84
2021/11/02 14:45:18;;;;;;;22.00;20.70;;;;;;;;;;5038799;28;20435;-89
2021/11/02 14:47:45;;;;;;;22.00;20.80;;;;;;;;;;5040489;28;20462;-85
2021/11/02 14:50:32;;;;;;;21.80;20.40;;;;;;;;;;5039731;28;20442;-90
2021/11/02 14:53:11;;;;;;;21.23;19.93;;;;;;;;;;5045499;28;20885;-90
2021/11/02 14:55:48;;;;;;;21.10;19.90;;;;;;;;;;5045683;28;20447;-92
2021/11/02 14:58:31;;;;;;;20.93;19.73;;;;;;;;;;5044642;28;20456;-90
2021/11/02 15:00:58;;;;;;;21.20;19.83;;;;;;;;;;5042105;28;20518;-89
2021/11/02 15:03:32;;;;;;;21.13;19.93;;;;;;;;;;5041029;28;20418;-91
2021/11/02 15:06:03;;;;;;;21.27;19.87;;;;;;;;;;5037869;28;20529;-89
2021/11/02 15:08:33;;;;;;;20.73;19.40;;;;;;;;;;5035969;28;20417;-83
2021/11/02 15:11:03;;;;;;;20.10;18.90;;;;;;;;;;5025713;28;20517;-87
2021/11/02 15:13:31;;;;;;;21.10;19.63;;;;;;;;;;5021603;28;20468;-85
2021/11/02 15:15:59;;;;;;;20.40;19.17;;;;;;;;;;5023852;28;20457;-92
2021/11/02 15:18:37;;;;;;;21.87;20.07;;;;;;;;;;5021742;28;20415;-86
2021/11/02 15:21:05;;;;;;;21.47;19.83;;;;;;;;;;5004230;28;20472;-95
2021/11/02 15:23:45;;;;;;;21.53;20.10;;;;;;;;;;5042429;22;20495;-90
2021/11/02 15:26:13;;;;;;;20.50;19.20;;;;;;;;;;5037933;28;20858;-93
2021/11/02 15:28:42;;;;;;;22.67;21.17;;;;;;;;;;5037712;28;20443;-92
2021/11/02 15:31:09;;;;;;;22.70;21.00;;;;;;;;;;5038629;28;20463;-92
2021/11/02 15:33:39;;;;;;;24.20;22.33;;;;;;;;;;5038206;28;20440;-91
2021/11/02 15:36:14;;;;;;;22.67;21.07;;;;;;;;;;5038148;28;20490;-91
2021/11/02 15:38:42;;;;;;;22.50;21.00;;;;;;;;;;5037817;28;20457;-95
2021/11/02 15:41:20;;;;;;;23.40;21.50;;;;;;;;;;5037716;28;20909;-94
2021/11/02 15:43:55;;;;;;;23.40;21.47;;;;;;;;;;5038708;28;20417;-93
2021/11/02 15:46:23;;;;;;;22.53;21.10;;;;;;;;;;5038004;28;20402;-92
2021/11/02 15:48:52;;;;;;;21.33;19.90;;;;;;;;;;5039641;28;20413;-91
2021/11/02 15:51:19;;;;;;;22.53;20.70;;;;;;;;;;5036666;28;20436;-91
2021/11/02 15:53:49;;;;;;;22.63;20.50;;;;;;;;;;5036197;28;20447;-89
2021/11/02 15:56:23;;;;;;;22.50;20.90;;;;;;;;;;5037246;28;20442;-88
2021/11/02 15:58:56;;;;;;;22.20;20.70;;;;;;;;;;5035339;28;20429;-94
2021/11/02 16:01:29;;;;;;;22.00;20.70;;;;;;;;;;5037139;28;21004;-95
2021/11/02 16:04:07;;;;;;;20.90;19.70;;;;;;;;;;5036266;28;20409;-95
2021/11/02 16:06:34;;;;;;;20.40;19.10;;;;;;;;;;5038140;28;20459;-92
2021/11/02 16:09:06;;;;;;;21.60;20.17;;;;;;;;;;5038386;28;20405;-93
2021/11/02 16:11:33;;;;;;;22.10;20.67;;;;;;;;;;5037129;28;20451;-88
2021/11/02 16:14:06;;;;;;;23.93;22.33;;;;;;;;;;5037687;28;20920;-94
2021/11/02 16:16:34;;;;;;;21.80;20.30;;;;;;;;;;5036827;28;20412;-90
2021/11/02 16:19:01;;;;;;;21.70;20.40;;;;;;;;;;5037314;28;20931;-87
2021/11/02 16:21:32;;;;;;;22.67;20.90;;;;;;;;;;5036712;28;20465;-90
2021/11/02 16:24:08;;;;;;;21.43;20.03;;;;;;;;;;5035281;28;20529;-93
2021/11/02 16:26:39;;;;;;;23.10;21.67;;;;;;;;;;5038241;28;20439;-87
2021/11/02 16:29:13;;;;;;;23.60;21.97;;;;;;;;;;5036297;28;20509;-90
2021/11/02 16:31:42;;;;;;;22.33;21.03;;;;;;;;;;5035900;28;20801;-89
2021/11/02 16:34:16;;;;;;;22.87;21.27;;;;;;;;;;5037088;28;20448;-90
2021/11/02 16:36:44;;;;;;;23.07;21.57;;;;;;;;;;5037472;28;20481;-88
2021/11/02 16:39:21;;;;;;;22.57;21.27;;;;;;;;;;5037008;28;20495;-86
2021/11/02 16:41:52;;;;;;;21.33;20.10;;;;;;;;;;5038910;28;20449;-86
2021/11/02 16:44:28;;;;;;;21.90;20.70;;;;;;;;;;5040390;28;20432;-85
2021/11/02 16:47:02;;;;;;;21.83;20.10;;;;;;;;;;5039126;28;20445;-87
2021/11/02 16:49:30;;;;;;;22.33;21.03;;;;;;;;;;5040788;28;20505;-88
2021/11/02 16:51:59;;;;;;;23.13;21.67;;;;;;;;;;5041603;28;20421;-94
2021/11/02 16:54:27;;;;;;;23.60;21.47;;;;;;;;;;5041307;28;20455;-91
2021/11/02 16:57:17;;;;;;;22.93;21.53;;;;;;;;;;5043054;28;20456;-90
2021/11/02 16:59:53;;;;;;;26.53;24.70;;;;;;;;;;5041337;28;20433;-88
2021/11/02 17:02:22;;;;;;;25.53;23.93;;;;;;;;;;5047278;28;20458;-91
2021/11/02 17:05:01;;;;;;;26.93;24.90;;;;;;;;;;5042748;28;20478;-96
2021/11/02 17:07:34;;;;;;;26.87;24.70;;;;;;;;;;5042552;28;20422;-96
2021/11/02 17:10:15;;;;;;;25.10;23.10;;;;;;;;;;5042045;28;20406;-96
2021/11/02 17:12:43;;;;;;;25.03;23.23;;;;;;;;;;5041986;28;20429;-96
2021/11/02 17:15:12;;;;;;;24.90;22.70;;;;;;;;;;5037965;28;20474;-91
2021/11/02 17:17:41;;;;;;;24.90;23.13;;;;;;;;;;5035458;28;20426;-90
2021/11/02 17:20:11;;;;;;;24.27;22.70;;;;;;;;;;5035205;28;20429;-92
2021/11/02 17:22:38;;;;;;;25.20;22.97;;;;;;;;;;5035904;28;20840;-87
2021/11/02 17:25:07;;;;;;;24.70;23.10;;;;;;;;;;5035095;28;20543;-89
2021/11/02 17:27:34;;;;;;;25.10;23.30;;;;;;;;;;5031100;28;20456;-87
2021/11/02 17:30:02;;;;;;;23.93;22.33;;;;;;;;;;5014875;28;20923;-87
2021/11/02 17:32:32;;;;;;;26.67;24.40;;;;;;;;;;5015940;28;20885;-95
2021/11/02 17:35:00;;;;;;;30.73;28.37;;;;;;;;;;5015049;28;20430;-90
2021/11/02 17:37:30;;;;;;;29.93;27.67;;;;;;;;;;5017635;28;20421;-92
2021/11/02 17:39:58;;;;;;;26.27;24.40;;;;;;;;;;5016359;28;20447;-94
2021/11/02 17:42:25;;;;;;;28.13;26.43;;;;;;;;;;5017103;28;20861;-91
2021/11/02 17:44:53;;;;;;;25.83;24.07;;;;;;;;;;5016003;28;20437;-93
2021/11/02 17:47:20;;;;;;;24.40;22.90;;;;;;;;;;5029208;28;20433;-95
2021/11/02 17:49:50;;;;;;;25.53;23.93;;;;;;;;;;5024045;28;20437;-93
2021/11/02 17:52:17;;;;;;;35.73;24.73;;;;;;;;;;5028952;28;20455;-93
2021/11/02 17:54:45;;;;;;;24.57;22.63;;;;;;;;;;5032489;28;20448;-96
2021/11/02 17:57:13;;;;;;;25.23;23.33;;;;;;;;;;5031535;28;20806;-88
2021/11/02 17:59:42;;;;;;;23.77;22.27;;;;;;;;;;5030429;28;20425;-86
2021/11/02 18:02:11;;;;;;;25.20;23.50;;;;;;;;;;5031931;28;20465;-95
2021/11/02 18:04:38;;;;;;;25.30;23.70;;;;;;;;;;5033022;28;20434;-95
2021/11/02 18:07:08;;;;;;;26.10;24.03;;;;;;;;;;5030030;28;20444;-95
2021/11/02 18:09:36;;;;;;;24.87;22.97;;;;;;;;;;5032177;28;20429;-95
2021/11/02 18:12:04;;;;;;;24.07;22.43;;;;;;;;;;5032157;28;20977;-94
2021/11/02 18:14:32;;;;;;;23.37;21.87;;;;;;;;;;5029039;28;20463;-95
2021/11/02 18:17:00;;;;;;;23.87;22.10;;;;;;;;;;5032064;28;20437;-95
2021/11/02 18:19:29;;;;;;;23.30;21.70;;;;;;;;;;5033276;28;20436;-96
2021/11/02 18:21:58;;;;;;;24.30;22.33;;;;;;;;;;5031057;28;20487;-94
2021/11/02 18:24:27;;;;;;;23.93;22.00;;;;;;;;;;5033324;28;21453;-95
2021/11/02 18:26:54;;;;;;;22.33;21.03;;;;;;;;;;5033102;28;20895;-95
2021/11/02 18:29:22;;;;;;;23.23;21.30;;;;;;;;;;5030809;28;20441;-94
2021/11/02 18:31:50;;;;;;;22.77;21.47;;;;;;;;;;5028761;28;20446;-95
2021/11/02 18:34:23;;;;;;;24.13;22.50;;;;;;;;;;5039086;28;20437;-96
2021/11/02 18:37:01;;;;;;;24.20;22.30;;;;;;;;;;5039290;28;20809;-96
2021/11/02 18:39:32;;;;;;;22.77;21.37;;;;;;;;;;5036991;28;20491;-96
2021/11/02 18:42:02;;;;;;;23.37;21.93;;;;;;;;;;5037402;28;21478;-96
2021/11/02 18:44:33;;;;;;;23.73;21.80;;;;;;;;;;5035835;28;20421;-96
2021/11/02 18:47:01;;;;;;;24.43;22.63;;;;;;;;;;5039293;28;20464;-96
2021/11/02 18:49:30;;;;;;;24.37;22.60;;;;;;;;;;5041242;28;20510;-96
2021/11/02 18:52:00;;;;;;;25.47;23.23;;;;;;;;;;5036396;28;20513;-96
2021/11/02 18:54:32;;;;;;;24.47;22.87;;;;;;;;;;5037564;28;20444;-96
2021/11/02 18:57:00;;;;;;;24.77;22.67;;;;;;;;;;5036147;28;20466;-96
2021/11/02 18:59:30;;;;;;;25.30;23.50;;;;;;;;;;5044397;28;20804;-96
2021/11/02 19:02:01;;;;;;;24.10;22.30;;;;;;;;;;5039645;28;21007;-96